Tiempo atmosférico en la estación meteorológica de Tenerife Sur Aeropuerto, Santa Cruz de Tenerife (64 m.)



Fecha
DESCASC
Temp. máxima en grados centígrados (hora)
DESCASC
Temp. mínima en grados centígrados (hora)
DESCASC
Temp. media en grados centígrados
DESCASC
Racha de viento máxima en m/sg (hora)
DESCASC
Velocidad máxima media en intervalos de 10 minutos(hora)
DESCASC
Precipitaciones diarias en mm
DESCASC
Precipitaciones de 00:00 a 06:00 en mm
DESCASC
Precipitaciones de 06:00 a 12:00 en mm
DESCASC
Precipitaciones de 12:00 a 18:00 en mm
DESCASC
Precipitaciones de 18:00 a 24:00 en mm
DESCASC
28-02-2021 21.2 (12:00) 12.7 (05:50) 17 9.17 (13:00) 6.67 (13:10) 6.2 0 0 6.2 0
27-02-2021 21.2 (11:50) 12.7 (06:00) 17 8.33 (01:00) 5.56 (03:40) 0 0 0 0 0
26-02-2021 21.6 (12:50) 12.9 (07:20) 17.3 17.5 (10:40) 13.06 (10:40) 0 0 0 0 0
25-02-2021 22.3 (12:00) 16.1 (00:00) 19.2 20.56 (09:30) 15.56 (11:00) 0 0 0 0 0
24-02-2021 24.1 (13:30) 16.1 (00:00) 20.1 16.11 (11:10) 11.94 (18:00) 0 0 0 0 0
23-02-2021 23.4 (13:40) 14.6 (00:00) 19 12.5 (14:10) 9.17 (14:30) 0 0 0 0 0
22-02-2021 21.1 (12:30) 14.7 (00:00) 17.9 7.22 (12:00) 4.44 (12:30) 0 0 0 0 0
21-02-2021 22.5 (11:50) 15.9 (00:00) 19.2 10.83 (03:30) 7.5 (12:20) 0 0 0 0 0
20-02-2021 23.4 (14:10) 14.2 (00:00) 18.8 22.22 (14:20) 17.22 (16:50) 0.1 0 0 0 0.1
19-02-2021 24.2 (15:00) 11.8 (00:00) 18 10.83 (17:50) 8.61 (18:50) 0 0 0 0 0
18-02-2021 22.5 (13:50) 14.3 (00:00) 18.4 11.67 (13:20) 8.89 (14:20) 0 0 0 0 0
17-02-2021 22.2 (11:10) 16.1 (00:00) 19.2 12.78 (02:20) 9.17 (00:30) 0 0 0 0 0
16-02-2021 23.5 (00:20) 18.4 (00:00) 20.9 13.33 (22:40) 10.28 (22:50) 0 0 0 0 0
15-02-2021 27.4 (12:40) 12.8 (00:00) 20.1 12.5 (05:40) 9.72 (05:40) 0 0 0 0 0
14-02-2021 22.8 (13:50) 13.2 (00:00) 18 13.89 (13:40) 10 (13:20) 0 0 0 0 0
13-02-2021 23 (12:40) 16 (00:00) 19.5 13.33 (12:20) 9.17 (10:50) 0 0 0 0 0
12-02-2021 23.6 (12:30) 15.3 (00:00) 19.5 14.44 (15:00) 10.28 (12:40) 0 0 0 0 0
11-02-2021 21.9 (12:40) 14.8 (00:00) 18.3 6.11 (10:20) 3.89 (21:30) 0 0 0 0 0
10-02-2021 21.6 (13:20) 13.5 (00:00) 17.6 7.22 (12:40) 4.17 (12:40) 0 0 0 0 0
09-02-2021 22.1 (13:00) 13.7 (00:00) 17.9 8.89 (13:20) 6.67 (13:20) -- 0 0 -- 0
08-02-2021 19.8 (13:30) 15.1 (00:00) 17.4 5 (13:20) 3.61 (20:30) 0 0 0 0 0
07-02-2021 21.1 (11:30) 13.2 (00:00) 17.2 6.11 (11:30) 4.17 (11:50) 0 0 0 0 0
06-02-2021 21.4 (14:30) 11.4 (00:00) 16.4 8.89 (13:10) 5.28 (13:10) 0 0 0 0 0
05-02-2021 19.3 (11:40) 12.2 (00:00) 15.7 13.89 (03:40) 9.72 (03:10) 1 0 0 1 0
04-02-2021 23.4 (13:20) 14.7 (00:00) 19 20 (13:10) 11.67 (12:40) 0 0 0 0 0
03-02-2021 21.1 (15:20) 14 (00:00) 17.6 5.83 (00:30) 4.17 (06:40) 0 0 0 0 0
02-02-2021 21.9 (13:20) 15.5 (07:20) 18.7 10.28 (12:40) 7.78 (12:50) 0 0 0 0 0
01-02-2021 25.8 (14:30) 17.1 (00:00) 21.4 16.94 (11:50) 13.33 (11:50) 0 0 0 0 0
31-01-2021 23.7 (15:00) 17.5 (00:00) 20.6 15 (21:30) 11.11 (21:30) 0 0 0 0 0

Gráficas

Temp. máximas Temp. mínimas Temp. medias Precipitaciones Rachas de viento máximas Velocidades máximas media en intervalos de 10 minutos

Datos horarios

Fecha y hora oficial Temperatura (ºC) Velocidad del viento (km/h) Dirección del viento Racha (km/h) Dirección de racha Precipitación (mm) Presión (hPa) Tendencia (hPa) Humedad (%)
2021-03-01 23:00:00 15.8 11 Norte 28 Nordeste 0 1011.8 1.5 70
2021-03-01 22:00:00 16.9 16 Nordeste 28 Nordeste 0 1011.6 2 66
2021-03-01 21:00:00 17.3 14 Nordeste 37 Nordeste 0 1010.9 1.3 66
2021-03-01 20:00:00 18 24 Este 32 Este 0 1010.3 1.1 64
2021-03-01 19:00:00 18.7 21 Este 30 Este 0 1009.6 0.7 62
2021-03-01 18:00:00 19.2 19 Este 32 Este 0 1009.6 0.2 60
2021-03-01 17:00:00 19.3 23 Este 35 Este 0 1009.2 -0.5 62
2021-03-01 16:00:00 20.1 25 Este 35 Este 0 1008.9 -1.3 60
2021-03-01 15:00:00 20.6 24 Este 32 Este 0 1009.4 -- 59
2021-03-01 14:00:00 21 21 Este -- -- -- 1009.7 -- 53
2021-03-01 13:00:00 21.1 12 Este 24 Este 0 1010.2 -- 52
2021-03-01 12:00:00 20.8 12 Sur 24 Sur 0 1010.5 -- 56
2021-03-01 11:00:00 20.1 14 Sur 21 Sur 0 1010.5 -- 60
2021-03-01 10:00:00 19.3 9 Este 13 Este 0 1010.5 -- 63
2021-03-01 09:00:00 17.1 10 Nordeste 17 Norte 0 1009.6 -- 61
2021-03-01 08:00:00 14 16 Noroeste 21 Noroeste 0 1008.7 -- 70
2021-03-01 07:00:00 13.9 14 Noroeste 22 Noroeste 0 1008.1 -- 71
2021-03-01 06:00:00 13.8 19 Noroeste 24 Noroeste 0 1007.4 -- 72
2021-03-01 05:00:00 14.2 18 Noroeste 21 Noroeste 0 1007.2 -- 77
2021-03-01 04:00:00 14.2 16 Noroeste 22 Noroeste 0 1007.4 -- 77
2021-03-01 03:00:00 14.1 17 Noroeste 21 Noroeste 0 1007.7 -- 78
2021-03-01 02:00:00 13.3 14 Noroeste 18 Noroeste 0 1007.9 -- 81
2021-03-01 01:00:00 13.1 11 Noroeste 13 Noroeste 0 1008 -- 83
2021-03-01 00:00:00 13.9 8 Norte 15 Noroeste 0 1008.3 -- 80
2021-02-28 23:00:00 14.9 14 Noroeste 18 Noroeste 0 1008.5 -- 77
2021-02-28 22:00:00 15.3 17 Noroeste 22 Oeste 0 1008.3 -- 79
2021-02-28 21:00:00 15.6 15 Noroeste 18 Noroeste 0 1007.7 -- 80
2021-02-28 20:00:00 16 13 Oeste 26 Oeste 0 1007.3 -- 83
2021-02-28 19:00:00 17.4 10 Sudoeste 13 Sudoeste 0 1006.9 -- 79
2021-02-28 18:00:00 17.3 3 Norte 13 Norte 0 1006.6 -- 78
2021-02-28 17:00:00 16.4 6 Norte 17 Norte 2.3 1006.8 -- 80
2021-02-28 16:00:00 16.1 12 Noroeste 22 Este 3.2 1006.8 -- 89
2021-02-28 15:00:00 17.7 16 Este 28 Este 0.7 1006.8 -- 77
2021-02-28 14:00:00 18.8 21 Este 33 Este 0 1007.1 -- 66
2021-02-28 13:00:00 18.9 24 Este 33 Este 0 1007.4 -- 63
2021-02-28 12:00:00 20.9 12 Sur 22 Sudeste 0 1008 -- 49
2021-02-28 11:00:00 20.1 12 Este 18 Este 0 1008 -- 50
2021-02-28 10:00:00 19.3 8 Sudeste 13 Sudeste 0 1007.8 -- 54
2021-02-28 09:00:00 17.8 9 Nordeste 17 Norte 0 1007.6 -- 55
2021-02-28 08:00:00 14.1 14 Norte 21 Norte 0 1007.2 -- 57
2021-02-28 07:00:00 13.3 12 Norte 17 Norte 0 1007 -- 59
2021-02-28 06:00:00 12.9 14 Norte 17 Norte 0 1006.6 -- 70
2021-02-28 05:00:00 13.3 13 Noroeste 17 Noroeste 0 1006.8 -- 72
2021-02-28 04:00:00 14 13 Noroeste 18 Noroeste 0 1007.3 -- 71
2021-02-28 03:00:00 14.5 11 Noroeste 18 Oeste 0 1007.9 -- 70
2021-02-28 02:00:00 14.3 14 Noroeste 21 Noroeste 0 1008.3 -- 68
2021-02-28 01:00:00 14.6 13 Noroeste 18 Noroeste 0 1009.1 -- 61
2021-02-28 00:00:00 13.8 13 Noroeste 15 Noroeste 0 1009.5 -- 68
2021-02-27 23:00:00 14.5 7 Noroeste 9 Norte 0 1009.8 -- 66
2021-02-27 22:00:00 16.4 3 Sur 17 Sudoeste 0 1010.2 -- 62
2021-02-27 21:00:00 16.9 11 Sudoeste 18 Sudoeste 0 1010 -- 60
2021-02-27 20:00:00 17.3 12 Sudoeste 21 Sudoeste 0 1009.6 -- 55
2021-02-27 19:00:00 17.9 12 Sudoeste 17 Sudoeste 0 1009.5 -- 53
2021-02-27 18:00:00 18.5 11 Sudoeste 18 Sudoeste 0 1009.6 -- 51
2021-02-27 17:00:00 18.7 12 Sudeste 22 Este 0 1009.8 -- 53
2021-02-27 16:00:00 18.4 8 Este 13 Nordeste 0 1010.2 -- 53
2021-02-27 15:00:00 18.5 9 Sudeste 30 Sudeste 0 1010.8 -- 52
2021-02-27 14:00:00 19.2 13 Sudeste 24 Este 0 1011.9 -- 51
2021-02-27 13:00:00 19.2 12 Sudeste 24 Sudeste 0 1012.7 -- 51
2021-02-27 12:00:00 20.1 18 Sudoeste 28 Sur 0 1013.4 -- 45
2021-02-27 11:00:00 20.3 15 Sudoeste 24 Sudoeste 0 1013.7 -- 45
2021-02-27 10:00:00 19.6 8 Sudeste 13 Este 0 1013.9 -- 43
2021-02-27 09:00:00 17.8 3 Norte 15 Norte 0 1013.7 -- 53
2021-02-27 08:00:00 14.1 13 Norte 17 Noroeste 0 1013.3 -- 65
2021-02-27 07:00:00 14.4 10 Norte 18 Norte 0 1013 -- 60
2021-02-27 06:00:00 12.9 7 Nordeste 15 Norte 0 1013 -- 63
2021-02-27 05:00:00 15 9 Nordeste 26 Nordeste 0 1013.2 -- 59
2021-02-27 04:00:00 15.2 18 Norte 26 Nordeste 0 1013.8 -- 56
2021-02-27 03:00:00 14.4 13 Nordeste 18 Nordeste 0 1014.2 -- 61
2021-02-27 02:00:00 14.5 9 Nordeste 18 Norte 0 1014.8 -- 61
2021-02-27 01:00:00 16.1 14 Nordeste 30 Este 0 1015.3 -- 62
2021-02-27 00:00:00 15.6 13 Norte 28 Nordeste 0 1015.8 -- 56
2021-02-26 23:00:00 16.4 15 Nordeste 33 Nordeste 0 1015.9 -- 60
2021-02-26 22:00:00 17.2 17 Nordeste 33 Este 0 1015.8 -- 56
2021-02-26 21:00:00 17.4 23 Nordeste 37 Nordeste 0 1015.7 -- 56
2021-02-26 20:00:00 17.5 22 Nordeste 58 Este 0 1015.4 -- 55
2021-02-26 19:00:00 17.9 38 Nordeste 61 Nordeste 0 1015.1 -- 52
2021-02-26 18:00:00 19 43 Nordeste 59 Nordeste 0 1015 -- 49
2021-02-26 17:00:00 20.2 45 Nordeste 63 Este 0 1014.8 -- 47
2021-02-26 16:00:00 20.5 41 Este 59 Este 0 1014.9 -- 47
2021-02-26 15:00:00 21 45 Este 61 Este 0 1015.3 -- 39
2021-02-26 14:00:00 21.1 38 Este 59 Nordeste 0 1016.1 -- 42
2021-02-26 13:00:00 21 39 Este 59 Nordeste 0 1017 -- 45
2021-02-26 12:00:00 20.9 43 Este 61 Nordeste 0 1017.5 -- 45
2021-02-26 11:00:00 20.5 47 Nordeste 63 Este 0 1017.7 -- 45
2021-02-26 10:00:00 19.8 37 Nordeste 50 Nordeste 0 1017.8 -- 46
2021-02-26 09:00:00 17.9 13 Norte 24 Norte 0 1017.3 -- 48
2021-02-26 08:00:00 14.1 14 Norte 18 Norte 0 1017 -- 63
2021-02-26 07:00:00 14.9 5 Noroeste 28 Nordeste 0 1016.4 -- 60
2021-02-26 06:00:00 16 11 Nordeste 30 Norte 0 1016.4 -- 51
2021-02-26 05:00:00 15.7 14 Este 39 Este 0 1016.1 -- 60
2021-02-26 04:00:00 15.8 19 Nordeste 32 Este 0 1016.5 -- 53
2021-02-26 03:00:00 14 13 Nordeste 24 Nordeste 0 1016.6 -- 58
2021-02-26 02:00:00 15.2 17 Nordeste 35 Nordeste 0 1017.5 -- 57
2021-02-26 01:00:00 16 20 Nordeste 45 Nordeste 0 1018.5 -- 57
2021-02-26 00:00:00 16.2 31 Nordeste 48 Nordeste 0 1018.6 -- 59
2021-02-25 23:00:00 16.6 36 Nordeste 58 Nordeste 0 1018.7 -- 58
2021-02-25 22:00:00 17 35 Nordeste 59 Nordeste 0 1018.8 -- 59
2021-02-25 21:00:00 17.3 34 Nordeste 50 Este 0 1018 -- 61
2021-02-25 20:00:00 17.6 36 Nordeste 54 Nordeste 0 1017.3 -- 64
2021-02-25 19:00:00 18.3 36 Nordeste 54 Nordeste 0 1016.7 -- 64
2021-02-25 18:00:00 19.6 41 Nordeste 59 Nordeste 0 1016.6 -- 59
2021-02-25 17:00:00 20.9 41 Nordeste 63 Nordeste 0 1016.4 -- 57
2021-02-25 16:00:00 21.1 48 Nordeste 67 Nordeste 0 1016.4 -- 56
2021-02-25 15:00:00 21.9 52 Nordeste 71 Nordeste 0 1016.6 -- 56
2021-02-25 14:00:00 21.8 51 Nordeste 67 Nordeste 0 1017 -- 58
2021-02-25 13:00:00 22.1 50 Nordeste 72 Este 0 1017.3 -- 58
2021-02-25 12:00:00 21.9 49 Nordeste 67 Nordeste 0 1017.7 -- 59
2021-02-25 11:00:00 21.2 56 Nordeste 71 Nordeste 0 1017.7 -- 60
2021-02-25 10:00:00 20.4 52 Nordeste 74 Nordeste 0 1017.5 -- 65
2021-02-25 09:00:00 19.2 44 Nordeste 72 Nordeste 0 1017.1 -- 72
2021-02-25 08:00:00 17.9 42 Nordeste 68 Nordeste 0 1016.5 -- 78
2021-02-25 07:00:00 17.9 48 Nordeste 65 Nordeste 0 1015.9 -- 75
2021-02-25 06:00:00 17.8 45 Nordeste 65 Nordeste 0 1015.5 -- 75
2021-02-25 05:00:00 17.8 46 Nordeste 65 Nordeste 0 1015.1 -- 70
2021-02-25 04:00:00 17.9 43 Nordeste 58 Nordeste 0 1015.1 -- 64
2021-02-25 03:00:00 17.9 43 Nordeste 55 Nordeste 0 1014.9 -- 67
2021-02-25 02:00:00 17.9 37 Nordeste 58 Nordeste 0 1015.3 -- 66
2021-02-25 01:00:00 18.1 39 Nordeste 54 Nordeste 0 1015.7 -- 65
2021-02-25 00:00:00 18.2 28 Nordeste 41 Nordeste 0 1016.4 -- 69
2021-02-24 23:00:00 18.2 26 Nordeste 41 Nordeste 0 1016.6 -- 67
2021-02-24 22:00:00 18.4 23 Nordeste 45 Nordeste 0 1016.5 -- 67
2021-02-24 21:00:00 18.4 25 Nordeste 45 Nordeste 0 1015.9 -- 77
2021-02-24 20:00:00 18.6 31 Nordeste 46 Nordeste 0 1014.9 -- 76
2021-02-24 19:00:00 19.3 35 Nordeste 55 Nordeste 0 1014.6 -- 72
2021-02-24 18:00:00 20.5 43 Nordeste 58 Nordeste 0 1014.3 -- 66
2021-02-24 17:00:00 22.1 37 Este 55 Nordeste 0 1013.7 -- 59
2021-02-24 16:00:00 22.7 37 Este 50 Este 0 1014.3 -- 57
2021-02-24 15:00:00 23.2 33 Este 52 Este 0 1014.4 -- 54
2021-02-24 14:00:00 23.4 34 Este 52 Nordeste 0 1014.7 -- 52
2021-02-24 13:00:00 23.7 39 Este 55 Nordeste 0 1015.6 -- 45
2021-02-24 12:00:00 23.4 36 Este 58 Nordeste 0 1016.4 -- 45
2021-02-24 11:00:00 22.3 38 Nordeste 50 Este 0 1016.6 -- 45
2021-02-24 10:00:00 20.9 37 Nordeste 55 Nordeste 0 1016.5 -- 50
2021-02-24 09:00:00 18.2 18 Nordeste 28 Nordeste 0 1016 -- 60
2021-02-24 08:00:00 17 14 Norte 30 Nordeste 0 1015.2 -- 65
2021-02-24 07:00:00 16.8 16 Nordeste 24 Nordeste 0 1014.1 -- 71
2021-02-24 06:00:00 16.4 14 Norte 21 Nordeste 0 1013.8 -0.4 70
2021-02-24 05:00:00 16.7 13 Norte 22 Norte 0 1013.7 -1.3 65
2021-02-24 04:00:00 16.4 14 Norte 21 Nordeste 0 1013.9 -- 67
2021-02-24 03:00:00 16.4 13 Norte 21 Norte 0 1014.2 -- 67
2021-02-24 02:00:00 16.4 12 Norte 18 Norte 0 1015 -- 64
2021-02-24 01:00:00 16.7 13 Norte 17 Norte 0 1015.6 -0.5 64
2021-02-24 00:00:00 17.7 14 Nordeste 28 Nordeste 0 1016 -- 60
2021-02-23 23:00:00 18.7 18 Nordeste 28 Nordeste 0 1016.2 -- 57
2021-02-23 22:00:00 17.8 14 Nordeste 24 Nordeste 0 1016.1 -- 64
2021-02-23 21:00:00 18.7 21 Nordeste 30 Nordeste 0 1015.5 -- 65
2021-02-23 20:00:00 18.6 23 Nordeste 35 Nordeste 0 1014.9 0.7 67
2021-02-23 19:00:00 19.1 28 Nordeste 41 Nordeste 0 1014.3 -- 67
2021-02-23 18:00:00 20.2 30 Este 41 Nordeste 0 1014.2 -- 62
2021-02-23 17:00:00 21 28 Este 41 Este 0 1014.2 -- 58
2021-02-23 16:00:00 21.5 29 Este 41 Este 0 1014.1 -- 56
2021-02-23 15:00:00 22.5 33 Este 45 Este 0 1014.1 -- 53
2021-02-23 14:00:00 23 28 Este 42 Nordeste 0 1014.7 -- 49
2021-02-23 13:00:00 22.5 28 Este 42 Este 0 1015.7 -- 55
2021-02-23 12:00:00 22.4 30 Este 42 Nordeste 0 1016.3 -- 56
2021-02-23 11:00:00 22 30 Nordeste 42 Nordeste 0 1016.2 -- 52
2021-02-23 10:00:00 21.1 29 Nordeste 41 Este 0 1016.1 -- 57
2021-02-23 09:00:00 19.2 25 Nordeste 37 Nordeste 0 1015.4 -- 61
2021-02-23 08:00:00 16.2 20 Nordeste 26 Nordeste 0 1014.6 -- 70
2021-02-23 07:00:00 16.2 18 Nordeste 26 Nordeste 0 1014.1 -- 70
2021-02-23 06:00:00 16 18 Nordeste 24 Nordeste 0 1013.9 -- 71
2021-02-23 05:00:00 15 10 Norte 18 Norte 0 1014.1 -- 72
2021-02-23 04:00:00 16.1 12 Norte 18 Nordeste 0 1014.2 -- 72
2021-02-23 03:00:00 15.9 15 Nordeste 18 Nordeste 0 1014.4 -- 74
2021-02-23 02:00:00 16 13 Norte 21 Norte 0 1015 -- 79
2021-02-23 01:00:00 16 13 Norte 21 Nordeste 0 1015.3 -- 81
2021-02-23 00:00:00 15.9 13 Norte 17 Norte 0 1015.5 -- 81
2021-02-22 23:00:00 15.9 8 Norte 13 Norte 0 1015.7 -- 80
2021-02-22 22:00:00 16.3 11 Norte 13 Norte 0 1015.6 -- 78
2021-02-22 21:00:00 16.9 9 Norte 11 Norte 0 1015 -- 76
2021-02-22 20:00:00 17.9 4 Este 8 Sur 0 1014.3 -- 75
2021-02-22 19:00:00 18.9 5 Sur 13 Sur 0 1013.8 -- 72
2021-02-22 18:00:00 20.4 9 Sur 15 Este 0 1013.4 -- 65
2021-02-22 17:00:00 20.8 6 Sudeste 15 Sudeste 0 1013.1 -- 64
2021-02-22 16:00:00 19.9 8 Sur 18 Sur 0 1013.3 -- 67
2021-02-22 15:00:00 19.8 11 Sur 18 Sur 0 1013.2 -- 69
2021-02-22 14:00:00 19.7 11 Sur 18 Sur 0 1013.7 -- 69
2021-02-22 13:00:00 20.6 13 Sudeste 24 Sudeste 0 1014.4 -- 66
2021-02-22 12:00:00 20.5 14 Sudeste 26 Sudeste 0 1014.8 -- 66
2021-02-22 11:00:00 20.1 12 Sudeste 17 Sudeste 0 1014.8 -- 65
2021-02-22 10:00:00 18.7 7 Este 11 Este 0 1014.5 -- 69
2021-02-22 09:00:00 17.7 9 Nordeste 15 Norte 0 1013.8 -- 69
2021-02-22 08:00:00 15.6 14 Norte 17 Norte 0 1013 -- 73
2021-02-22 07:00:00 14.8 13 Norte 17 Norte 0 1012.5 -- 79
2021-02-22 06:00:00 14.8 12 Norte 15 Norte 0 1012 -0.4 78
2021-02-22 05:00:00 15.1 12 Norte 15 Norte 0 1011.7 -- 76
2021-02-22 04:00:00 15.3 10 Norte 13 Norte 0 1012 -- 76
2021-02-22 03:00:00 16 12 Norte 15 Norte 0 1012.4 -- 72
2021-02-22 02:00:00 16.6 8 Norte 13 Nordeste 0 1012.7 -- 70
2021-02-22 01:00:00 17.5 7 Nordeste -- -- 0 1012.9 -- 72
2021-02-22 00:00:00 17.3 6 Noroeste 9 Noroeste 0 1012.8 -- 69
2021-02-21 23:00:00 17.5 3 Sudeste 13 Este 0 1013 -- 70
2021-02-21 22:00:00 18.4 10 Este 15 Este 0 1012.8 -- 66
2021-02-21 21:00:00 18.2 6 Este 13 Este 0 1012.2 2.2 65
2021-02-21 20:00:00 18.6 6 Sudeste 13 Sudeste 0 1011.2 -- 63
2021-02-21 19:00:00 19 10 Este 18 Sudeste 0 1010.3 -- 62
2021-02-21 18:00:00 19.8 13 Sudeste 22 Sudeste 0 1010 -- 59
2021-02-21 17:00:00 20.7 18 Sudeste 28 Sudeste 0 1009.3 -- 56
2021-02-21 16:00:00 20.4 21 Este 30 Este 0 1009.2 -- 59
2021-02-21 15:00:00 21.6 23 Sudeste 37 Sudeste 0 1009 -- 54
2021-02-21 14:00:00 22.2 21 Sudeste 35 Sudeste 0 1009.8 -- 50
2021-02-21 13:00:00 22 24 Sudeste 39 Sudeste 0 1010.5 -- 52
2021-02-21 12:00:00 22 21 Sudeste 32 Sudeste 0 1010 -- 50
2021-02-21 11:00:00 20.9 17 Este 26 Este 0 1009.6 -- 53
2021-02-21 10:00:00 20.1 14 Este 22 Nordeste 0 1008.7 -- 56
2021-02-21 09:00:00 19.6 14 Nordeste 22 Norte 0 1007.9 -- 56
2021-02-21 08:00:00 16 7 Norte 11 Norte 0 1006.8 -- 71
2021-02-21 07:00:00 17.2 5 Noroeste 13 Noroeste 0 1006.4 -- 72
2021-02-21 06:00:00 17.3 9 Noroeste 13 Noroeste 0 1005.8 -- 73
2021-02-21 05:00:00 17.9 6 Noroeste 32 Nordeste 0 1005.7 -- 71
2021-02-21 04:00:00 18.6 22 Nordeste 39 Norte 0 1005.3 -- 71
2021-02-21 03:00:00 18.3 17 Norte 26 Norte 0 1005 -- 75
2021-02-21 02:00:00 18.5 6 Oeste 22 Noroeste 0 1004.2 -- 69
2021-02-21 01:00:00 18.1 14 Oeste 21 Oeste 0 1004.4 -- 78
2021-02-21 00:00:00 18.9 11 Norte 21 Oeste 0 1005 -- 77
2021-02-20 23:00:00 20.7 13 Norte 61 Oeste 0 1005.4 -- 71
2021-02-20 22:00:00 21.3 38 Oeste 78 Noroeste 0 1003.8 -- 56
2021-02-20 21:00:00 19.3 39 Oeste 71 Oeste 0 1003.3 -- 81
2021-02-20 20:00:00 19.3 48 Oeste 71 Oeste 0 1003.4 -- 85
2021-02-20 19:00:00 19.1 48 Oeste 72 Oeste 0.1 1003.7 -- 89
2021-02-20 18:00:00 19.7 55 Oeste 78 Oeste 0 1003.2 -- 82
2021-02-20 17:00:00 20.3 60 Oeste 80 Oeste 0 1003.2 -- 75
2021-02-20 16:00:00 20.6 54 Oeste 71 Oeste 0 1004.3 -- 69
2021-02-20 15:00:00 21.1 53 Oeste 80 Oeste 0 1005.3 -- 67
2021-02-20 14:00:00 23.1 47 Oeste 63 Oeste 0 1005.8 -- 55
2021-02-20 13:00:00 22.8 49 Oeste 67 Sudoeste 0 1005.9 -- 54
2021-02-20 12:00:00 22.1 41 Oeste 55 Oeste 0 1007.1 -- 56
2021-02-20 11:00:00 20.3 43 Oeste 61 Oeste 0 1007.9 -- 61
2021-02-20 10:00:00 20.6 42 Oeste 52 Oeste 0 1007.7 -- 64
2021-02-20 09:00:00 18.8 33 Oeste 45 Oeste 0 1007.6 -- 69
2021-02-20 08:00:00 16.1 26 Oeste 37 Oeste 0 1007.5 0.4 79
2021-02-20 07:00:00 15.2 23 Oeste 32 Oeste 0 1007.3 -- 81
2021-02-20 06:00:00 15.3 26 Oeste 33 Oeste 0 1007.2 -- 79
2021-02-20 05:00:00 15 22 Oeste 28 Oeste 0 1007.1 -- 80
2021-02-20 04:00:00 15.8 20 Sudoeste 26 Sudoeste 0 1007.3 -- 73
2021-02-20 03:00:00 14.6 10 Oeste 15 Oeste 0 1007.6 -2 68
2021-02-20 02:00:00 15.1 10 Oeste 13 Noroeste 0 1008.2 -- 64
2021-02-20 01:00:00 14.9 8 Noroeste 13 Este 0 1008.7 -- 64
2021-02-20 00:00:00 15.4 6 Nordeste 9 Nordeste 0 1009.6 -- 60
2021-02-19 23:00:00 15.5 0 Calma 8 Noroeste 0 1009.9 -- 55
2021-02-19 22:00:00 17 4 Norte 9 Noroeste 0 1009.8 1.2 51
2021-02-19 21:00:00 18.6 4 Norte 26 Oeste 0 1009.3 -- 45
2021-02-19 20:00:00 19.6 22 Oeste 37 Oeste 0 1008.9 -- 31
2021-02-19 19:00:00 20.8 29 Oeste 39 Oeste 0 1008.6 -- 24
2021-02-19 18:00:00 22.6 31 Oeste 39 Oeste 0 1008.6 -- 22
2021-02-19 17:00:00 23.9 30 Sudoeste 35 Oeste 0 1009 -- 18
2021-02-19 16:00:00 24 22 Sudoeste 30 Sudoeste 0 1008.9 -1.9 17
2021-02-19 15:00:00 23.9 15 Sudoeste 24 Oeste 0 1009.2 -- 18
2021-02-19 14:00:00 23.7 12 Sur 22 Sur 0 1009.9 -- 18
2021-02-19 13:00:00 22.4 13 Sur 18 Sur 0 1010.8 -- 48
2021-02-19 12:00:00 22.6 11 Sudeste 17 Sur 0 1011.4 -- 44
2021-02-19 11:00:00 23.2 9 Sudeste 22 Nordeste 0 1011.6 -- 33
2021-02-19 10:00:00 19.7 16 Nordeste 24 Nordeste 0 1011.4 -- 59
2021-02-19 09:00:00 17.4 15 Nordeste 21 Nordeste 0 1010.9 -- 64
2021-02-19 08:00:00 14.2 15 Norte 18 Nordeste 0 1010.3 -- 65
2021-02-19 07:00:00 13.5 15 Norte 18 Norte 0 1010.2 -- 59
2021-02-19 06:00:00 12.7 9 Norte 11 Norte 0 1010.5 -- 71
2021-02-19 05:00:00 12.1 0 Calma 9 Noroeste 0 1010.4 -- 58
2021-02-19 04:00:00 12.5 6 Oeste 11 Noroeste 0 1010.1 -- 54
2021-02-19 03:00:00 12.8 8 Norte -- -- 0 1010 -- 48
2021-02-19 02:00:00 12.9 3 Nordeste 9 Noroeste 0 1010.5 -- 53
2021-02-19 01:00:00 14.1 9 Nordeste 15 Nordeste 0 1010.8 -- 54
2021-02-19 00:00:00 15.6 7 Norte 21 Nordeste 0 1011.2 -- 60
2021-02-18 23:00:00 16.6 15 Nordeste 21 Nordeste 0 1011.6 -- 68
2021-02-18 22:00:00 16.8 13 Nordeste 21 Nordeste 0 1011 -- 69
2021-02-18 21:00:00 17.4 14 Nordeste 22 Nordeste 0 1010.6 -- 69
2021-02-18 20:00:00 18.1 18 Nordeste 30 Este 0 1010.2 -- 69
2021-02-18 19:00:00 19 19 Este 32 Este 0 1010.1 -- 68
2021-02-18 18:00:00 20.3 23 Este 35 Este 0 1009.7 -- 60
2021-02-18 17:00:00 21.2 26 Este 37 Este 0 1009 -- 57
2021-02-18 16:00:00 21.5 30 Este 41 Este 0 1009 -- 57
2021-02-18 15:00:00 21.9 30 Este 42 Este 0 1009 -- 54
2021-02-18 14:00:00 22.1 31 Este 42 Este 0 1009.4 -- 50
2021-02-18 13:00:00 22.3 27 Este 41 Este 0 1010.1 -- 43
2021-02-18 12:00:00 21.9 26 Este 39 Este 0 1010.6 -- 44
2021-02-18 11:00:00 21.3 31 Este 41 Nordeste 0 1010.7 -- 45
2021-02-18 10:00:00 19.8 26 Nordeste 33 Nordeste 0 1010.8 -- 45
2021-02-18 09:00:00 17.4 23 Nordeste 30 Nordeste 0 1010.5 -- 50
2021-02-18 08:00:00 15 20 Nordeste 24 Nordeste 0 1010.1 -- 45
2021-02-18 07:00:00 15.4 11 Norte 21 Norte 0 1009.8 -- 42
2021-02-18 06:00:00 15.3 14 Norte 21 Norte 0 1009.4 -- 54
2021-02-18 05:00:00 15.5 10 Norte 28 Nordeste 0 1009.6 -- 46
2021-02-18 04:00:00 14.5 12 Nordeste 21 Nordeste 0 1009.6 -- 26
2021-02-18 03:00:00 16.5 16 Norte 28 Norte 0 1009.6 -- 21
2021-02-18 02:00:00 15.4 17 Norte 22 Nordeste 0 1010.2 -- 59
2021-02-18 01:00:00 15.7 15 Nordeste 21 Nordeste 0 1010.4 -- 59
2021-02-18 00:00:00 16.2 13 Norte 21 Norte 0 1010.7 -- 61
2021-02-17 23:00:00 16.6 14 Nordeste 21 Nordeste 0 1010.6 -- 61
2021-02-17 22:00:00 17 16 Nordeste 21 Norte 0 1010.6 -- 59
2021-02-17 21:00:00 16.7 10 Nordeste 13 Nordeste 0 1010.6 -- 53
2021-02-17 20:00:00 17.6 0 Calma 4 Sudeste 0 1010.1 -- 56
2021-02-17 19:00:00 18.7 3 Sudeste 9 Este 0 1009.6 -- 51
2021-02-17 18:00:00 19.6 6 Sudeste 15 Este 0 1009.4 -- 47
2021-02-17 17:00:00 20.8 9 Sudeste 21 Sur 0 1009.5 -- 41
2021-02-17 16:00:00 21.2 14 Sur 24 Sur 0 1009.9 -- 40
2021-02-17 15:00:00 21.4 16 Sur 26 Sudeste 0 1010.2 -- 40
2021-02-17 14:00:00 21.6 17 Sudeste 30 Sudeste 0 1010.7 -- 39
2021-02-17 13:00:00 21.8 22 Sudeste 30 Sudeste 0 1011.4 -- 37
2021-02-17 12:00:00 21.8 15 Sudeste 26 Este 0 1012.2 -- 38
2021-02-17 11:00:00 21.9 18 Nordeste 33 Nordeste 0 1012.3 -- 37
2021-02-17 10:00:00 -- -- -- -- -- -- -- -- --
2021-02-17 09:00:00 19.2 22 Nordeste 30 Este 0 1011.7 -- 44
2021-02-17 08:00:00 17.4 21 Nordeste 32 Nordeste 0 1011.3 -- 43
2021-02-17 07:00:00 17.8 23 Nordeste 33 Nordeste 0 1011 -- 45
2021-02-17 06:00:00 17.7 22 Este 32 Este 0 1010.9 -- 39
2021-02-17 05:00:00 17.9 23 Nordeste 35 Nordeste 0 1010.7 -- 34
2021-02-17 04:00:00 18.8 28 Nordeste 39 Nordeste 0 1010.8 -- 31
2021-02-17 03:00:00 19.4 27 Nordeste 46 Nordeste 0 1011.5 -- 22
2021-02-17 02:00:00 20.5 32 Nordeste 42 Nordeste 0 1011.7 -- 17
2021-02-17 01:00:00 20.5 28 Nordeste -- -- -- 1012 -- 17
2021-02-17 00:00:00 19.5 27 Nordeste 45 Nordeste 0 1012.2 -- 25
2021-02-16 23:00:00 19.1 33 Nordeste 48 Nordeste 0 1012.5 -- 28
2021-02-16 22:00:00 18.8 26 Nordeste 39 Nordeste 0 1012.5 -- 31
2021-02-16 21:00:00 19.1 20 Nordeste 37 Nordeste 0 1012.1 -- 32
2021-02-16 20:00:00 18.9 17 Este 37 Este 0 1011.9 -- 45
2021-02-16 19:00:00 19.1 22 Este 33 Este 0 1011.6 -- 55
2021-02-16 18:00:00 20.4 22 Este 32 Este 0 1011.6 -- 52
2021-02-16 17:00:00 21.5 25 Este 39 Este 0 1011.9 -- 51
2021-02-16 16:00:00 22 26 Este 41 Este 0 1012.2 -- 45
2021-02-16 15:00:00 22.5 28 Sudeste 39 Sudeste 0 1012.5 -- 46
2021-02-16 14:00:00 22.2 20 Sudeste 28 Este 0 1013.9 -- 42
2021-02-16 13:00:00 22.4 15 Sudeste 30 Este 0 1015.1 -- 45
2021-02-16 12:00:00 22.2 19 Este 37 Sudeste 0 1016.1 -- 44
2021-02-16 11:00:00 22 26 Este 42 Este 0 1016.3 -- 41
2021-02-16 10:00:00 21.6 20 Este 35 Nordeste 0 1016 -- 42
2021-02-16 09:00:00 21.3 20 Nordeste 32 Nordeste 0 1015.3 -- 31
2021-02-16 08:00:00 19.8 14 Este 26 Este 0 1014.4 -- 34
2021-02-16 07:00:00 20.1 15 Nordeste 32 Nordeste 0 1013.9 -- 30
2021-02-16 06:00:00 20.7 15 Nordeste 33 Este 0 1013.6 -- 30
2021-02-16 05:00:00 21.3 15 Este 24 Este 0 1013.5 -- 31
2021-02-16 04:00:00 21.6 12 Este 26 Este 0 1013.9 -- 29
2021-02-16 03:00:00 22.5 19 Este 30 Este 0 1014 -- 24
2021-02-16 02:00:00 22.5 7 Nordeste 21 Nordeste 0 1014 -- 20
2021-02-16 01:00:00 21.9 9 Este -- -- -- 1013.9 -- 25
2021-02-16 00:00:00 22.7 13 Nordeste 22 Nordeste 0 1013.7 -- 19
2021-02-15 23:00:00 22.4 16 Nordeste 24 Norte 0 1013.8 -- 21
2021-02-15 22:00:00 22.8 13 Nordeste 26 Norte 0 1013.5 -- 21
2021-02-15 21:00:00 20.7 15 Nordeste 21 Este 0 1013 -- 25
2021-02-15 20:00:00 21.4 14 Nordeste 18 Nordeste 0 1012.2 -- 29
2021-02-15 19:00:00 23.3 13 Nordeste 30 Este 0 1012 -- 27
2021-02-15 18:00:00 25.4 18 Este 26 Este 0 1012.1 -- 24
2021-02-15 17:00:00 26.2 16 Este 26 Este 0 1012.2 -- 21
2021-02-15 16:00:00 25.8 15 Este 32 Este 0 1012.7 -- 22
2021-02-15 15:00:00 26 18 Este 35 Este 0 1013 -- 21
2021-02-15 14:00:00 26.1 19 Este 45 Este 0 1013.6 -- 24
2021-02-15 13:00:00 27 24 Este 45 Este 0 1014 -- 20
2021-02-15 12:00:00 26.8 24 Nordeste 42 Este 0 1014.4 -- 21
2021-02-15 11:00:00 26.1 23 Este 39 Nordeste 0 1014.4 -- 28
2021-02-15 10:00:00 23.8 20 Nordeste 41 Este 0 1013.9 -- 41
2021-02-15 09:00:00 18.9 22 Nordeste 33 Este 0 1013.4 -- 65
2021-02-15 08:00:00 18.1 24 Nordeste 33 Este 0 1012.4 -- 57
2021-02-15 07:00:00 19.9 19 Norte 42 Nordeste 0 1011.7 -- 26
2021-02-15 06:00:00 16.3 31 Nordeste 45 Nordeste 0 1011.4 -- 85
2021-02-15 05:00:00 15.5 14 Nordeste 26 Este 0 1010.9 -- 81
2021-02-15 04:00:00 15.6 16 Nordeste 28 Norte 0 1011.2 -- 85
2021-02-15 03:00:00 13.2 4 Nordeste 11 Noroeste 0 1011.6 -- 80
2021-02-15 02:00:00 14 5 Noroeste 22 Norte 0 1011.9 -- 78
2021-02-15 01:00:00 14.9 13 Nordeste -- -- -- 1012.3 -- 83
2021-02-15 00:00:00 15.8 16 Nordeste 22 Nordeste 0 1012.7 -- 80
2021-02-14 23:00:00 15.9 13 Norte 21 Nordeste 0 1012.8 -- 78
2021-02-14 22:00:00 16.3 14 Nordeste 22 Nordeste 0 1012.7 -- 80
2021-02-14 21:00:00 16.9 14 Nordeste 21 Nordeste 0 1012.8 -- 82
2021-02-14 20:00:00 17.3 10 Nordeste 18 Nordeste 0 1012.3 -- 80
2021-02-14 19:00:00 18.8 15 Este 30 Este 0 1011.6 -- 74
2021-02-14 18:00:00 20.7 19 Este 30 Este 0 1011.3 0 67
2021-02-14 17:00:00 21.5 24 Este 32 Este 0 1011.2 -0.5 64
2021-02-14 16:00:00 22.2 25 Este 33 Este 0 1011.1 -- 61
2021-02-14 15:00:00 22.4 23 Este 45 Este 0 1011.3 -- 60
2021-02-14 14:00:00 22.7 31 Este 50 Nordeste 0 1011.7 -- 59
2021-02-14 13:00:00 22.2 35 Este 46 Este 0 1012 -- 59
2021-02-14 12:00:00 21.6 31 Este 46 Este 0 1012.8 -- 60
2021-02-14 11:00:00 21.1 24 Nordeste 33 Nordeste 0 1013.2 -- 60
2021-02-14 10:00:00 19.7 25 Nordeste 33 Nordeste 0 1013.1 -- 62
2021-02-14 09:00:00 17.8 18 Nordeste 28 Nordeste 0 1012.8 -- 72
2021-02-14 08:00:00 15.3 14 Norte 21 Norte 0 1012.4 -- 73
2021-02-14 07:00:00 14 10 Norte 15 Norte 0 1011.8 -- 82
2021-02-14 06:00:00 15.5 10 Nordeste 28 Norte 0 1011.7 -- 71
2021-02-14 05:00:00 15.5 15 Norte 26 Norte 0 1011.9 -- 71
2021-02-14 04:00:00 15.5 9 Norte 26 Nordeste 0 1012.3 -- 73
2021-02-14 03:00:00 15.8 14 Norte 21 Norte 0 1012.4 -- 74
2021-02-14 02:00:00 15.8 16 Norte 32 Nordeste 0 1012.9 -- 74
2021-02-14 01:00:00 16.3 17 Nordeste 24 Norte 0 1013.2 -- 74
2021-02-14 00:00:00 16.5 15 Norte 26 Norte 0 1013.3 -- 74
2021-02-13 23:00:00 16.6 15 Norte 26 Norte 0 1013.6 -- 76
2021-02-13 22:00:00 17 15 Norte 26 Norte 0 1013.5 -- 75
2021-02-13 21:00:00 17.5 17 Nordeste 30 Nordeste 0 1013.5 -- 73
2021-02-13 20:00:00 17.8 20 Nordeste 35 Nordeste 0 1013.2 -- 72
2021-02-13 19:00:00 18.6 26 Nordeste 39 Este 0 1012.9 -- 70
2021-02-13 18:00:00 20.2 27 Nordeste 42 Este 0 1012.4 -- 65
2021-02-13 17:00:00 21.2 32 Este 42 Este 0 1012.3 -- 61
2021-02-13 16:00:00 21.7 30 Este 45 Este 0 1012.3 -- 60
2021-02-13 15:00:00 21.9 30 Este 45 Este 0 1012.8 -- 59
2021-02-13 14:00:00 22.4 31 Este 46 Este 0 1013.4 -- 58
2021-02-13 13:00:00 22.5 31 Este 48 Este 0 1014.2 -- 58
2021-02-13 12:00:00 22.4 33 Este 46 Este 0 1014.8 -- 55
2021-02-13 07:00:00 16.6 15 Norte 24 Norte 0 1013.5 0.4 71
2021-02-13 06:00:00 16.8 14 Norte 33 Nordeste 0 1012.9 -0.7 70
2021-02-13 05:00:00 17 18 Norte 37 Nordeste 0 1012.8 -0.9 71
2021-02-13 04:00:00 17.4 18 Nordeste 41 Nordeste 0 1013.1 -1 75
2021-02-13 03:00:00 18 27 Nordeste 37 Nordeste 0 1013.6 -1 76
2021-02-13 02:00:00 17.7 24 Nordeste 42 Nordeste 0 1013.7 -1.3 81
2021-02-13 01:00:00 17.4 14 Nordeste 24 Nordeste 0 1014.1 -1.1 72
2021-02-13 00:00:00 17.5 14 Nordeste 22 Norte 0 1014.6 -0.1 70
2021-02-12 23:00:00 18.5 21 Nordeste 35 Nordeste 0 1015 0.9 72
2021-02-12 22:00:00 18.4 13 Nordeste 22 Nordeste 0 1015.2 1.5 78
2021-02-12 21:00:00 18.2 11 Norte 28 Nordeste 0 1014.7 1.2 76
2021-02-12 20:00:00 18.4 16 Nordeste 37 Nordeste 0 1014.1 0.8 73
2021-02-12 19:00:00 19.2 30 Nordeste 46 Este 0 1013.7 0.4 69
2021-02-12 18:00:00 20.5 32 Nordeste 45 Nordeste 0 1013.5 -0.1 64
2021-02-12 17:00:00 21.5 31 Nordeste 48 Nordeste 0 1013.3 -0.8 62
2021-02-12 16:00:00 22.6 32 Nordeste 48 Este 0 1013.3 -1.3 61
2021-02-12 15:00:00 22.3 37 Este 52 Nordeste 0 1013.6 -1.2 60
2021-02-12 14:00:00 22.4 28 Este 46 Este 0 1014.1 -0.8 61
2021-02-12 13:00:00 23.1 33 Este 50 Este 0 1014.6 -0.3 48
2021-02-12 12:00:00 22.6 33 Nordeste 50 Nordeste 0 1014.8 -0.3 49
2021-02-12 11:00:00 21.8 33 Nordeste 46 Nordeste 0 1014.9 0.6 56
2021-02-12 10:00:00 20.7 25 Este 39 Este 0 1014.9 1.1 59
2021-02-12 09:00:00 18.6 11 Norte 18 Norte 0 1015.1 1.7 56
2021-02-12 08:00:00 16 15 Norte 22 Norte 0 1014.3 -- 63
2021-02-12 07:00:00 15.9 14 Norte 21 Norte 0 1013.8 -- 66
2021-02-12 06:00:00 15.5 13 Norte 17 Norte 0 1013.4 -- 72
2021-02-12 05:00:00 16.1 12 Norte 17 Norte 0 1013.7 -- 74
2021-02-12 04:00:00 16.5 13 Norte 18 Norte 0 1013.9 -- 71
2021-02-12 03:00:00 17.5 10 Norte 18 Norte 0 1014 -- 72
2021-02-12 02:00:00 15.8 12 Norte 17 Norte 0 1014.2 -- 69
2021-02-12 01:00:00 16.1 12 Norte 22 Norte 0 1014.3 -- 66
2021-02-12 00:00:00 17.6 12 Norte 21 Norte 0 1014.4 -- 64
2021-02-11 23:00:00 17.7 11 Norte 18 Norte 0 1014.5 -- 64
2021-02-11 22:00:00 17.1 11 Norte 21 Norte 0 1014.2 -- 66
2021-02-11 21:00:00 17.4 12 Norte 15 Norte 0 1013.8 -- 69
2021-02-11 20:00:00 18.1 11 Nordeste 17 Nordeste 0 1013.2 -- 68
2021-02-11 19:00:00 19.5 6 Este 11 Sur 0 1012.8 -- 66
2021-02-11 18:00:00 20.4 7 Sudeste 15 Sudeste 0 1012.6 -- 63
2021-02-11 17:00:00 20 9 Sudeste 18 Sudeste 0 1012.6 -- 63
2021-02-11 16:00:00 20.1 10 Sudeste 18 Este 0 1012.6 -- 64
2021-02-11 15:00:00 21 11 Sur 21 Sur 0 1012.9 -- 60
2021-02-11 14:00:00 20.6 10 Sudeste 18 Este 0 1013.3 -- 58
2021-02-11 13:00:00 21.1 12 Sur 21 Sur 0 1014 -- 59
2021-02-11 12:00:00 19.9 10 Sur 18 Sur 0 1014.6 -- 68
2021-02-11 11:00:00 20.9 13 Sur 22 Sur 0 1014.6 -- 62
2021-02-11 10:00:00 20.6 6 Sur 11 Sudeste 0 1014 -- 62
2021-02-11 09:00:00 18.3 4 Noroeste 13 Norte 0 1013.3 -- 71
2021-02-11 08:00:00 15.3 10 Norte 11 Norte 0 1013 -- 78
2021-02-11 07:00:00 14.9 10 Norte 13 Norte 0 1012.5 -- 80
2021-02-11 06:00:00 15.7 10 Norte 13 Norte 0 1012.3 -- 72
2021-02-11 05:00:00 15.7 12 Norte 13 Norte 0 1012.2 -- 73
2021-02-11 04:00:00 15.8 9 Norte 11 Norte 0 1012.4 -- 74
2021-02-11 03:00:00 16.9 7 Noroeste 9 Norte 0 1012.7 -- 70
2021-02-11 02:00:00 17 9 Norte 15 Norte 0 1013.2 -- 67
2021-02-11 01:00:00 17.2 10 Norte 13 Norte 0 1013.2 -- 71
2021-02-11 00:00:00 16.8 10 Norte 13 Norte 0 1013.4 -- 74
2021-02-10 23:00:00 17.5 9 Norte 11 Norte 0 1013.5 -- 73
2021-02-10 22:00:00 18.4 2 Sudoeste 9 Sudoeste 0 1013.3 -- 75
2021-02-10 21:00:00 18.8 8 Sudoeste 9 Sudoeste 0 1013 -- 74
2021-02-10 20:00:00 18.9 6 Sudoeste 13 Sudoeste 0 1012.6 -- 73
2021-02-10 19:00:00 19.1 9 Sudoeste 11 Sudoeste 0 1012 -- 71
2021-02-10 18:00:00 19.6 10 Sudoeste 13 Sudoeste 0 1011.7 -- 69
2021-02-10 17:00:00 19.8 9 Sur 17 Sur 0 1011.4 -- 68
2021-02-10 16:00:00 20.2 13 Sur 18 Sur 0 1011.4 -- 67
2021-02-10 15:00:00 20.8 13 Sudoeste 21 Sur 0 1011.6 -- 65
2021-02-10 14:00:00 21.1 14 Sur 24 Sudoeste 0 1012.4 -- 64
2021-02-10 13:00:00 21.2 15 Sur 26 Sur 0 1013.3 -- 64
2021-02-10 12:00:00 20.8 14 Sudoeste 21 Sudoeste 0 1013.6 -- 66
2021-02-10 11:00:00 20.7 11 Sur 17 Sur 0 1013.7 -- 66
2021-02-10 10:00:00 20 8 Sur 11 Sur 0 1013.4 -- 61
2021-02-10 09:00:00 17.6 2 Noroeste 15 Noroeste 0 1013.1 -- 63
2021-02-10 08:00:00 13.6 13 Noroeste 17 Noroeste 0 1012.7 -- 75
2021-02-10 07:00:00 13.8 13 Noroeste 15 Noroeste 0 1012.1 -- 74
2021-02-10 06:00:00 14.6 13 Noroeste 17 Noroeste 0 1011.9 -- 71
2021-02-10 05:00:00 13.8 13 Noroeste 15 Noroeste 0 1011.8 -- 79
2021-02-10 04:00:00 14 11 Noroeste 13 Noroeste 0 1012 -- 79
2021-02-10 03:00:00 14.2 -- -- -- -- 0 1012 -- 77
2021-02-10 02:00:00 14.5 5 Norte 13 Norte 0 1012.6 -- 74
2021-02-10 01:00:00 15.6 11 Norte 13 Norte 0 1012.6 -- 72
2021-02-10 00:00:00 17.2 9 Norte 13 Norte 0 1013 -- 69
2021-02-09 23:00:00 17 10 Norte 13 Norte 0 1013 -- 71
2021-02-09 22:00:00 17.4 10 Norte 13 Norte 0 1012.8 -- 72
2021-02-09 21:00:00 17.3 11 Nordeste 13 Nordeste 0 1012.2 -- 73
2021-02-09 20:00:00 18.2 7 Sudoeste 15 Sudoeste 0 1011.7 -- 72
2021-02-09 19:00:00 19.2 14 Oeste 24 Oeste 0 1011.3 -- 66
2021-02-09 18:00:00 20.6 16 Oeste 30 Oeste 0 1011.2 -- 60
2021-02-09 17:00:00 20.9 18 Sudoeste 26 Sudoeste 0 1011.1 -- 60
2021-02-09 16:00:00 20.3 18 Sudoeste 26 Sur 0 1011.1 -- 60
2021-02-09 15:00:00 20.4 20 Sudoeste 28 Sur -- 1011.5 -- 60
2021-02-09 14:00:00 21.6 23 Sur 32 Sur -- 1012 -- 57
2021-02-09 13:00:00 21.7 23 Sur 30 Sur 0 1012.7 -- 56
2021-02-09 12:00:00 20.9 16 Sur 24 Sur 0 1013.3 -- 57
2021-02-09 11:00:00 20 10 Sur 18 Sur 0 1013.9 -- 58
2021-02-09 10:00:00 19 5 Oeste 9 Oeste 0 1013.3 -- 59
2021-02-09 09:00:00 17.4 4 Oeste 13 Oeste 0 1012.9 -- 64
2021-02-09 08:00:00 16.7 11 Oeste 22 Oeste 0 1012.8 -- 66
2021-02-09 07:00:00 16.2 9 Noroeste 13 Oeste 0 1012.3 -- 73
2021-02-09 06:00:00 15.8 12 Noroeste 17 Noroeste 0 1011.6 -- 73
2021-02-09 05:00:00 15.3 12 Noroeste 17 Noroeste 0 1011.3 -- 73
2021-02-09 04:00:00 14.7 13 Noroeste 17 Noroeste 0 1011.6 -- 75
2021-02-09 03:00:00 14 11 Norte 17 Noroeste 0 1012 -- 78
2021-02-09 02:00:00 14.3 10 Norte 15 Norte 0 1012.4 -- 76
2021-02-09 01:00:00 15.6 13 Norte 15 Norte 0 1013.2 -- 74
2021-02-09 00:00:00 17.1 11 Norte 13 Norte 0 1013.7 -- 76
2021-02-08 23:00:00 17.1 10 Norte 15 Norte 0 1013.5 -- 77
2021-02-08 22:00:00 17.3 10 Norte 15 Nordeste 0 1013.3 -- 73
2021-02-08 21:00:00 18.2 13 Nordeste 17 Este 0 1012.8 -- 70
2021-02-08 20:00:00 18.5 11 Este 15 Este 0 1012.6 -- 69
2021-02-08 19:00:00 18.5 9 Sur 15 Sur 0 1012.3 -- 67
2021-02-08 18:00:00 19.4 9 Sur 17 Sur 0 1011.9 -- 65
2021-02-08 17:00:00 19.4 10 Sur 17 Sudeste 0 1011.6 -- 66
2021-02-08 16:00:00 19.3 9 Sur 17 Sur 0 1011.5 -- 65
2021-02-08 15:00:00 19.1 9 Sur 18 Sudeste 0 1012 -- 66
2021-02-08 14:00:00 19.4 11 Sur 18 Sur 0 1012.8 -- 66
2021-02-08 13:00:00 19.5 10 Sur 15 Sur 0 1013.9 -- 66
2021-02-08 12:00:00 18.7 6 Sudeste 13 Sudeste 0 1014.5 -- 69
2021-02-08 11:00:00 18.4 5 Este 13 Este 0 1014.8 -- 69
2021-02-08 10:00:00 18 5 Este 9 Este 0 1014.6 -- 70
2021-02-08 09:00:00 17.4 7 Norte 9 Nordeste 0 1014.2 -- 70
2021-02-08 08:00:00 16.8 3 Norte 9 Noroeste 0 1013.6 -- 71
2021-02-08 07:00:00 16.5 4 Noroeste 11 Noroeste 0 1013.1 -- 74
2021-02-08 06:00:00 16.1 9 Noroeste 11 Noroeste 0 1012.6 -- 75
2021-02-08 05:00:00 -- 8 Noroeste 9 Noroeste 0 1012.4 -- --
2021-02-08 04:00:00 15.7 9 Noroeste 11 Noroeste 0 1012.8 -- 76
2021-02-08 03:00:00 15.8 8 Noroeste 11 Noroeste 0 1012.9 -- 75
2021-02-08 02:00:00 15.4 9 Norte 11 Norte 0 1013.1 -- 76
2021-02-08 01:00:00 15.7 10 Norte 15 Norte 0 1013.5 -- 75
2021-02-08 00:00:00 16.6 6 Norte 13 Norte 0 1014 -- 73
2021-02-07 23:00:00 15.6 10 Norte 13 Norte 0 1014 -- 77
2021-02-07 22:00:00 16.1 8 Norte 15 Norte 0 1013.8 -- 75
2021-02-07 21:00:00 17.3 8 Nordeste 17 Este 0 1013.6 -- 73
2021-02-07 20:00:00 17.9 7 Este 17 Este 0 1013.2 -- 70
2021-02-07 19:00:00 18 11 Este 18 Este 0 1012.8 -- 70
2021-02-07 18:00:00 18.5 14 Este 21 Este 0 1012.5 -- 67
2021-02-07 17:00:00 19.1 12 Este 22 Este 0 1012.5 -- 64
2021-02-07 16:00:00 19 8 Este 15 Este 0 1012.7 -- 61
2021-02-07 15:00:00 18.9 11 Este 21 Este 0 1013.2 -- 60
2021-02-07 14:00:00 19.4 13 Este 21 Sudeste 0 1013.5 -- 59
2021-02-07 13:00:00 20.4 12 Sur 22 Sudoeste 0 1014.3 -- 53
2021-02-07 12:00:00 20.7 14 Sur 22 Sudoeste 0 1014.8 -- 52
2021-02-07 11:00:00 20.6 13 Sur 18 Sudoeste 0 1014.7 -- 48
2021-02-07 10:00:00 19.8 8 Oeste 13 Sudoeste 0 1014.5 -- 49
2021-02-07 09:00:00 17.1 8 Noroeste 15 Norte 0 1013.8 -- 65
2021-02-07 08:00:00 14.4 12 Norte 15 Norte 0 1013.3 -- 73
2021-02-07 07:00:00 15.2 11 Norte 13 Norte 0 1012.6 -- 70
2021-02-07 06:00:00 14.6 11 Norte 15 Norte 0 1012.3 -- 72
2021-02-07 05:00:00 13.4 8 Norte 13 Norte 0 1012.3 -- 77
2021-02-07 04:00:00 14 12 Norte 13 Norte 0 1012 -- 76
2021-02-07 03:00:00 14.2 10 Norte 13 Norte 0 1012.1 -- 75
2021-02-07 02:00:00 14.8 13 Noroeste 18 Noroeste 0 1012.3 -- 73
2021-02-07 01:00:00 14.8 15 Noroeste 18 Noroeste 0 1012.6 -- 72
2021-02-07 00:00:00 15.1 11 Noroeste 17 Noroeste 0 1012.6 -- 68
2021-02-06 23:00:00 15.4 9 Norte 11 Norte 0 1012.4 -- 68
2021-02-06 22:00:00 16.7 5 Norte 9 Sudeste 0 1012.4 -- 64
2021-02-06 21:00:00 17 8 Sudeste 13 Sudeste 0 1011.9 -- 63
2021-02-06 20:00:00 17.5 9 Sudeste 13 Sudeste 0 1011.2 -- 61
2021-02-06 19:00:00 18 9 Sudeste 18 Sur 0 1010.6 -- 58
2021-02-06 18:00:00 19.3 13 Sur 22 Sur 0 1010.1 -- 53
2021-02-06 17:00:00 19.9 16 Sur 24 Sur 0 1010 -- 51
2021-02-06 16:00:00 20.3 17 Sur 30 Sur 0 1009.8 -- 48
2021-02-06 15:00:00 20.4 17 Sudeste 28 Sudeste 0 1009.6 -- 50
2021-02-06 14:00:00 20.8 16 Sudeste 32 Sur 0 1009.9 -- 48
2021-02-06 13:00:00 20.5 17 Sur 28 Sudeste 0 1010.5 -- 50
2021-02-06 12:00:00 20 11 Sur 18 Sudeste 0 1011 -- 51
2021-02-06 11:00:00 19.5 7 Sur 15 Sur 0 1010.9 -- 50
2021-02-06 10:00:00 18.3 0 Calma 9 Norte 0 1010.3 -- 54
2021-02-06 09:00:00 15 9 Norte 18 Norte 0 1009.8 -- 67
2021-02-06 08:00:00 11.6 13 Norte 15 Norte 0 1008.8 -- 77
2021-02-06 07:00:00 11.8 10 Norte 17 Norte 0 1008.4 -- 77
2021-02-06 06:00:00 12.4 12 Norte 17 Noroeste 0 1008.4 -- 75
2021-02-06 05:00:00 12.6 13 Norte 17 Norte 0 1008 -- 73
2021-02-06 04:00:00 12.6 13 Noroeste 21 Noroeste 0 1008 -- 73
2021-02-06 03:00:00 13 15 Noroeste 22 Noroeste 0 1007.9 -- 71
2021-02-06 02:00:00 12.9 15 Noroeste 22 Noroeste 0 1007.8 -- 71
2021-02-06 01:00:00 12 14 Noroeste 17 Noroeste 0 1008 -- 77
2021-02-06 00:00:00 12.3 13 Noroeste 15 Noroeste 0 1007.9 -- 76
2021-02-05 23:00:00 12.8 11 Norte 15 Norte 0 1007.4 -- 74
2021-02-05 22:00:00 13.7 11 Nordeste 18 Noroeste 0 1007.1 -- 72
2021-02-05 21:00:00 14.3 14 Noroeste 21 Noroeste 0 1006.5 -- 72
2021-02-05 20:00:00 15 11 Nordeste 41 Este 0 1005.8 -- 64
2021-02-05 19:00:00 15.5 8 Sudoeste 17 Sudoeste 0 1005.3 -- 64
2021-02-05 18:00:00 16.4 13 Sudoeste 24 Sur 0 1004.3 -- 59
2021-02-05 17:00:00 17.8 14 Sur 22 Sur 0 1003.8 -- 53
2021-02-05 16:00:00 16.9 9 Este 17 Sudeste 0 1003.4 -- 56
2021-02-05 15:00:00 15.7 10 Este 21 Este 0 1003.1 -- 65
2021-02-05 14:00:00 16.5 10 Nordeste 18 Norte 0 1003.2 -- 66
2021-02-05 13:00:00 15.4 14 Nordeste 22 Oeste 1 1003.6 -- 72
2021-02-05 12:00:00 17.8 14 Este 21 Este 0 1003.4 -- 51
2021-02-05 11:00:00 18.5 10 Sudeste 17 Sudeste 0 1002.8 -- 49
2021-02-05 10:00:00 17.7 6 Sudoeste 24 Oeste 0 1002.2 -- 48
2021-02-05 09:00:00 16.7 0 Calma 17 Norte 0 1001.7 -- 54
2021-02-05 08:00:00 13.2 4 Nordeste 13 Norte 0 1000.8 -- 66
2021-02-05 07:00:00 13.5 10 Norte 15 Norte 0 1000.1 -- 57
2021-02-05 06:00:00 14 8 Noroeste 18 Noroeste 0 1000.1 -- 63
2021-02-05 05:00:00 14.9 6 Noroeste 26 Noroeste 0 999.9 -- 60
2021-02-05 04:00:00 15.5 19 Noroeste 50 Oeste 0 999.5 -- 54
2021-02-05 03:00:00 15.6 34 Oeste 45 Oeste 0 999.8 -- 43
2021-02-05 02:00:00 15 10 Oeste 18 Norte 0 1000.5 -- 56
2021-02-05 01:00:00 15.7 5 Nordeste 21 Norte 0 1000.7 -- 54
2021-02-05 00:00:00 16.8 29 Oeste 54 Noroeste 0 1000.8 -- 40
2021-02-04 23:00:00 14.8 7 Noroeste 21 Noroeste 0 1001.1 -- 61
2021-02-04 22:00:00 15.9 11 Noroeste 39 Oeste 0 1001.2 -- 59
2021-02-04 21:00:00 17.5 25 Oeste 41 Oeste 0 1000.6 -- 38
2021-02-04 20:00:00 17.5 23 Oeste 33 Oeste 0 1000.6 -- 38
2021-02-04 19:00:00 18 10 Norte 26 Norte 0 1000.6 -- 58
2021-02-04 18:00:00 19.3 9 Nordeste 26 Este 0 1000.3 -- 54
2021-02-04 17:00:00 19.1 15 Este 30 Este 0 1000.2 -- 57
2021-02-04 16:00:00 19.8 19 Este 41 Sudeste 0 1000.6 -- 54
2021-02-04 15:00:00 19.6 29 Este 45 Este 0 1001.3 -- 60
2021-02-04 14:00:00 20.2 27 Nordeste 72 Noroeste 0 1001.6 -- 60
2021-02-04 13:00:00 22.9 36 Oeste 55 Oeste 0 1002.2 -- 38
2021-02-04 12:00:00 21.8 14 Noroeste 52 Oeste 0 1003.5 -- 51
2021-02-04 11:00:00 22.1 15 Noroeste 35 Oeste 0 1004 -- 42
2021-02-04 10:00:00 19.4 3 Este 11 Oeste 0 1004.4 -- 68
2021-02-04 09:00:00 17.1 4 Nordeste 15 Nordeste 0 1004.5 -- 82
2021-02-04 08:00:00 16.8 10 Nordeste 15 Nordeste 0 1004.4 -- 82
2021-02-04 07:00:00 17.2 4 Sudeste 9 Sudeste 0 1004.3 -- 79
2021-02-04 06:00:00 16.9 8 Sudeste 9 Sudeste 0 1004.1 -- 80
2021-02-04 05:00:00 17.2 5 Este 9 Este 0 1004.5 -- 76
2021-02-04 04:00:00 17 0 Calma -- -- 0 1005.1 -- 76
2021-02-04 03:00:00 17.7 3 Noroeste 9 Noroeste 0 1005.6 -- 73
2021-02-04 02:00:00 17.3 7 Noroeste 11 Noroeste 0 1006.3 -- 75
2021-02-04 01:00:00 17.5 4 Norte 13 Este 0 1006.6 -- 75
2021-02-04 00:00:00 17.9 6 Nordeste 9 Sudeste 0 1007.4 -- 74
2021-02-03 23:00:00 18.1 5 Sudeste 9 Nordeste 0 1007.4 -- 73
2021-02-03 22:00:00 18.4 5 Este 8 Sudeste 0 1007.6 -- 72
2021-02-03 21:00:00 18.4 5 Este 11 Este 0 1007.9 -- 72
2021-02-03 20:00:00 18.4 9 Este 15 Este 0 1007.7 -- 73
2021-02-03 19:00:00 18.6 9 Este 17 Este 0 1007.7 -- 73
2021-02-03 18:00:00 19 11 Este 21 Este 0 1007.9 -- 71
2021-02-03 17:00:00 19.8 12 Este 18 Sudeste 0 1008.4 -- 69
2021-02-03 16:00:00 20.2 11 Este 21 Este 0 1008.6 -- 67
2021-02-03 15:00:00 20.2 11 Sudeste 18 Sudeste 0 1008.6 -- 66
2021-02-03 14:00:00 20.3 10 Sudeste 18 Sudeste 0 1009 -- 66
2021-02-03 13:00:00 19.9 12 Sudeste 21 Sudeste 0 1009.9 -- 66
2021-02-03 12:00:00 20.2 13 Sudeste 21 Sudeste 0 1010.6 -- 66
2021-02-03 11:00:00 19.8 12 Sudeste 21 Nordeste 0 1010.9 -- 66
2021-02-03 10:00:00 18.8 11 Nordeste 18 Nordeste 0 1010.6 -- 69
2021-02-03 09:00:00 16.1 12 Norte 17 Norte 0 1010.2 -- 79
2021-02-03 08:00:00 14.2 14 Norte 18 Norte 0 1010 -- 84
2021-02-03 07:00:00 14.6 14 Norte 21 Nordeste 0 1009.8 -- 85
2021-02-03 06:00:00 15 10 Norte 18 Norte 0 1009.5 -- 83
2021-02-03 05:00:00 14.5 4 Norte 15 Nordeste 0 1009.6 -- 83
2021-02-03 04:00:00 14.4 10 Norte 13 Norte 0 1009.8 -- 86
2021-02-03 03:00:00 15.1 11 Norte 17 Norte 0 1010.1 -- 82
2021-02-03 02:00:00 15.8 13 Norte 17 Norte 0 1010.4 -- 83
2021-02-03 01:00:00 16.2 13 Norte 21 Nordeste 0 1010.7 -- 81
2021-02-03 00:00:00 17.1 14 Nordeste 22 Nordeste 0 1011 -- 79
2021-02-02 23:00:00 18.4 12 Nordeste 18 Este 0 1011.4 -- 76
2021-02-02 22:00:00 18.4 12 Nordeste 21 Nordeste 0 1011.6 -- 75
2021-02-02 21:00:00 18.4 13 Nordeste 22 Este 0 1011.2 -- 78
2021-02-02 20:00:00 18.6 14 Nordeste 21 Nordeste 0 1010.9 -- 78
2021-02-02 19:00:00 18.7 13 Este 22 Este 0 1010.5 -- 78
2021-02-02 18:00:00 19.2 17 Este 26 Este 0 1010.2 -- 76
2021-02-02 17:00:00 20.4 19 Este 28 Este 0 1009.9 -- 70
2021-02-02 16:00:00 20.8 20 Este 32 Este 0 1009.5 -- 68
2021-02-02 15:00:00 20.9 22 Este 37 Este 0 1009.6 -- 68
2021-02-02 14:00:00 21.3 28 Este 37 Este 0 1010 -- 66
2021-02-02 13:00:00 21.3 26 Este 37 Este 0 1010.8 -- 67
2021-02-02 12:00:00 20.5 25 Este 33 Este 0 1012 -- 70
2021-02-02 11:00:00 19.9 13 Este 21 Este 0 1012.6 -- 72
2021-02-02 10:00:00 19.4 13 Nordeste 22 Nordeste 0 1012.3 -- 75
2021-02-02 09:00:00 16.2 14 Nordeste 21 Nordeste 0 1011.5 -- 87
2021-02-02 08:00:00 15.5 12 Norte 17 Norte 0 1011.1 -- 88
2021-02-02 07:00:00 15.9 13 Norte 22 Nordeste 0 1010.6 -- 85
2021-02-02 06:00:00 16.2 14 Nordeste 26 Nordeste 0 1009.9 -- 85
2021-02-02 05:00:00 17.1 13 Nordeste 32 Nordeste 0 1010.1 -- 83
2021-02-02 04:00:00 17.5 22 Nordeste 35 Este 0 1010.5 -- 82
2021-02-02 03:00:00 17.6 20 Nordeste 35 Nordeste 0 1011.1 -- 82
2021-02-02 02:00:00 17.6 21 Nordeste 32 Nordeste 0 1011.5 -- 83
2021-02-02 01:00:00 17.8 18 Nordeste 33 Nordeste 0 1012 -- 83
2021-02-02 00:00:00 18.1 21 Nordeste 30 Nordeste 0 1012.1 -- 80
2021-02-01 23:00:00 18.4 15 Norte 37 Nordeste 0 1012.3 -- 77
2021-02-01 22:00:00 19 21 Nordeste 32 Nordeste 0 1012 -- 75
2021-02-01 21:00:00 19.7 17 Nordeste 35 Nordeste 0 1011.6 -- 65
2021-02-01 20:00:00 20 15 Nordeste 26 Nordeste 0 1011.4 -- 59
2021-02-01 19:00:00 21.7 14 Nordeste 39 Nordeste 0 1010.9 -- 49
2021-02-01 18:00:00 23.1 27 Nordeste 48 Nordeste 0 1010.2 -- 46
2021-02-01 17:00:00 24.6 30 Nordeste 55 Nordeste 0 1010.4 -- 42
2021-02-01 16:00:00 25.2 41 Nordeste 59 Este 0 1009.7 -- 40
2021-02-01 15:00:00 25.6 35 Nordeste 52 Nordeste 0 1010.3 -- 42
2021-02-01 14:00:00 25.3 37 Nordeste 48 Nordeste 0 1011 -- 45
2021-02-01 13:00:00 24.2 28 Este 58 Nordeste 0 1012.2 -- 53
2021-02-01 12:00:00 24 44 Nordeste 61 Nordeste 0 1012.1 -- 54
2021-02-01 11:00:00 23.7 41 Este 58 Nordeste 0 1012.3 -- 50
2021-02-01 10:00:00 21.9 29 Nordeste 42 Nordeste 0 1012.7 -- 57
2021-02-01 09:00:00 19.9 22 Nordeste 37 Nordeste 0 1012.5 -- 69
2021-02-01 08:00:00 18.4 26 Nordeste 37 Nordeste 0 1011.4 -- 73
2021-02-01 07:00:00 18.5 30 Nordeste 48 Nordeste 0 1011.1 -- 76
2021-02-01 06:00:00 18.2 33 Este 42 Nordeste 0 1010.6 -- 78
2021-02-01 05:00:00 17.3 17 Nordeste 32 Nordeste 0 1011.7 -- 81
2021-02-01 04:00:00 17.4 15 Nordeste 30 Nordeste 0 1012.5 -- 83
2021-02-01 03:00:00 17.9 28 Nordeste 35 Nordeste 0 1012.7 -- 81
2021-02-01 02:00:00 18.2 26 Nordeste 42 Nordeste 0 1013.2 -- 78
2021-02-01 01:00:00 17.3 17 Nordeste 35 Nordeste 0 1014.2 -- 81
2021-02-01 00:00:00 18 13 Norte 28 Norte 0 1014.6 -- 80
2021-01-31 23:00:00 18.2 19 Nordeste 50 Nordeste 0 1013.9 -- 81
2021-01-31 22:00:00 18.4 39 Nordeste 54 Nordeste 0 1013.4 -- 79
2021-01-31 21:00:00 18.6 28 Nordeste 46 Nordeste 0 1013.4 -- 77
2021-01-31 20:00:00 18.8 37 Nordeste 52 Nordeste 0 1012.8 -- 77
2021-01-31 19:00:00 19.2 32 Nordeste 46 Este 0 1012.3 -- 74
2021-01-31 18:00:00 20.8 29 Este 42 Nordeste 0 1012.4 -- 68
2021-01-31 17:00:00 22.1 27 Nordeste 50 Nordeste 0 1012.6 -- 63
2021-01-31 16:00:00 22.8 32 Nordeste 45 Este 0 1012.9 -- 58
2021-01-31 15:00:00 23.5 29 Nordeste 45 Nordeste 0 1013.5 -- 57
2021-01-31 14:00:00 22.8 30 Este 45 Nordeste 0 1014.5 -- 59
2021-01-31 13:00:00 22.7 28 Este 42 Este 0 1015.6 -- 60
2021-01-31 12:00:00 22.5 26 Este 37 Este 0 1016.5 -- 58
2021-01-31 11:00:00 22.3 23 Este 35 Este 0 1016.7 -- 57
2021-01-31 10:00:00 20.6 17 Nordeste 26 Nordeste 0 1016.5 -- 69
2021-01-31 09:00:00 19.3 19 Norte 30 Nordeste 0 1016.2 -- 75
2021-01-31 08:00:00 18.4 23 Nordeste 41 Nordeste 0 1015.7 -- 83
2021-01-31 07:00:00 18.1 24 Nordeste 37 Este 0 1015.4 -- 87
2021-01-31 06:00:00 18.4 16 Nordeste 33 Nordeste 0 1015.5 -- 81
2021-01-31 05:00:00 18.1 19 Nordeste 45 Nordeste 0 1015.4 -- 83
2021-01-31 04:00:00 18.2 28 Nordeste 48 Nordeste 0 1015.1 -- 82
2021-01-31 03:00:00 18.3 24 Nordeste 42 Nordeste 0 1015.6 -- 80
2021-01-31 02:00:00 18.2 28 Nordeste 50 Norte 0 1016.1 -- 80
2021-01-31 01:00:00 17.6 28 Nordeste 48 Norte 0 1015.8 -- 77
2021-01-31 00:00:00 17.6 29 Nordeste 48 Nordeste 0 1016.3 -- 78